Aérodrome :
LOGIN :

S'inscrire | Disclaimer

   EN    FR    IT 

 










Légende :    VFR   VFR Marginal   IFR   IFR Intensif   IFR Très Intensif
Visi : 
Plafond : 
>= 8 km
>= 3000ft
5 à 8 km
1000 à 3000 ft
1500m à 5 km
500 à 1000 ft
800 à 1500m
200 à 500 ft
< 800m
< 200 ft
Symboles :   Orages  Brouillard  Fortes neiges  Fortes précipitations  Vent > 20 kt
SIGMETs :   Divers  Orages  Givrage  Turbulence  Onde Orograph.  Cendres Volcan.







- Altitude de l'aérodrome : 124 ft
- Code IATA : RNS
- Voir les cartes d'approche


LFRN - Rennes

DERNIER METAR :
  • 280300Z AUTO 18009KT CAVOK 05/02 Q0993 TEMPO VRB15G30KT 3000 TSRAGS BKN015CB

METARs EXPIRÉS :
  • 280230Z AUTO 20010KT CAVOK 05/02 Q0994 TEMPO VRB15G30KT 3000 TSRAGS BKN015CB
  • 280200Z AUTO 22008KT 190V250 9999 ///TCU 05/01 Q0995 TEMPO 4000 SHRAGS BKN015CB
  • 280130Z AUTO 21008KT 9999 SCT035 SCT060 BKN200 05/01 Q0995 TEMPO 4000 SHRAGS BKN015CB
  • 280100Z AUTO 22009KT CAVOK 05/01 Q0995 TEMPO 4000 SHRAGS BKN015CB
  • 280030Z AUTO 23011KT 9999 FEW036 BKN210 05/02 Q0996 TEMPO 4000 SHRAGS BKN015CB

TAF TAF LFRN
Valide du 28 à 00h jusqu'au 01 à 00h UTC


272300Z 2800/2824 23015G25KT 9999 BKN030
TEMPO 2800/2815 4000 SHRAGS BKN015CB
BECMG 2801/2803 19010KT
PROB30
TEMPO 2804/2810 VRB15G30KT 3000 TSRAGS
BECMG 2807/2809 28012KT
BECMG 2810/2812 30020G30KT
TEMPO 2815/2824 4000 SHRAGS BKN020TCU
BECMG 2816/2818 24015G25KT
BECMG 2819/2821 25013KT
ATIS : +33 2 99 67 72 50
Pas de NOTAMs connus pour ce terrain.
2 SIGMETs publiés pour la FIR Brest (LFRR) :
 
Turbulence forte
LFRR SIGMET 11 VALID 280000/280400 LFPW
LFRR BREST FIR/UIR SEV TURB FCST WI N4630 W00100 - N4630 W00130 - N4330 W00145 - N4500 W00800 - N4900 W00800 - N5000 W00200 - N5000 W00015 - N4915 W00015 - N4815 W00230 SFC/FL060 STNR NC=
Orages noyés dans la masse
LFRR SIGMET 1 VALID 280300/280500 LFPW
LFRR BREST FIR/UIR EMBD TS OBS WI N4700 W00800 - N4900 W00800 - N5000 W00200 - N5000 W00030 - N4600 W00245 TOP FL270 MOV E 15KT NC=



MET'MAP, la Météo Aéronautique d'un coup d'oeil ! - Copyright ORBIFLY Décembre 2007 - Disclaimer

ORBIFLY MET'MAP TEAM :

Programmation & Développement : Alexandra Zaïnal
Conception & Développement : Baudouin d'Aumeries
Co-Programmation & Développement : Marc-Olivier Méhu
Soutien technique & logistique : Manuel Goepfert

Contact : metmap@orbifly.com




SOURCES & CREDITS :

   NOAA